In Rescue
 
Open Full Screen Window  High Contrast Mode
Wind Gusting 16 knots
11
January 20, 2021 6:08 PM EST
Weather Information
Wind Direction
  180 °
Wind Speed
  11 kt (13 mph)
Wind Gust
  16 kt (18 mph)
Altimeter
29.80 in
Visibility
10 SM
Temperature
-04° C
25° F
Dewpoint
-09° C
16° F
Humidity
69%
Sky Condition
Overcast @ 2,200 ft
MVFR

METAR KFFX 202308Z AUTO 18011G16KT 10SM OVC022 M04/M09 A2980 RMK AO2 T10451091

FAA Disclaimer: The data displayed is for advisory purposes only and is not to be used for flight planning or operations.